createdAt,value
2022-08-18T00:02:02.265Z,25.10
2022-08-18T00:04:35.608Z,25.11
2022-08-18T00:07:05.591Z,25.11
2022-08-18T00:09:35.801Z,25.11
2022-08-18T00:12:07.214Z,25.10
2022-08-18T00:14:36.596Z,25.10
2022-08-18T00:17:04.644Z,25.09
2022-08-18T00:19:47.841Z,25.10
2022-08-18T00:22:18.853Z,25.10
2022-08-18T00:24:49.650Z,25.09
2022-08-18T00:27:23.265Z,25.09
2022-08-18T00:29:55.295Z,25.10
2022-08-18T00:32:25.391Z,25.09
2022-08-18T00:34:54.297Z,25.10
2022-08-18T00:37:23.610Z,25.08
2022-08-18T00:39:53.627Z,25.08
2022-08-18T00:42:27.796Z,25.08
2022-08-18T00:45:01.932Z,25.08
2022-08-18T00:47:41.700Z,25.08
2022-08-18T00:50:15.377Z,25.07
2022-08-18T00:52:48.905Z,25.08
2022-08-18T00:55:19.525Z,25.07
2022-08-18T00:57:49.694Z,25.08
2022-08-18T01:00:19.571Z,25.06
2022-08-18T01:02:50.689Z,25.07
2022-08-18T01:05:23.501Z,25.07
2022-08-18T01:07:51.775Z,25.07
2022-08-18T01:10:22.019Z,25.07
2022-08-18T01:12:53.351Z,25.06
2022-08-18T01:15:29.000Z,25.07
2022-08-18T01:18:16.108Z,25.06
2022-08-18T01:21:08.255Z,25.07
2022-08-18T01:23:38.872Z,25.07
2022-08-18T01:26:06.406Z,25.06
2022-08-18T01:28:37.768Z,25.05
2022-08-18T01:31:06.533Z,25.05
2022-08-18T01:33:37.353Z,25.05
2022-08-18T01:36:12.370Z,25.05
2022-08-18T01:38:41.913Z,25.06
2022-08-18T01:41:27.427Z,25.05
2022-08-18T01:43:58.638Z,25.04
2022-08-18T01:46:27.785Z,25.04
2022-08-18T01:48:58.591Z,25.05
2022-08-18T01:51:36.256Z,25.03
2022-08-18T01:54:11.220Z,25.03
2022-08-18T01:56:39.192Z,25.04
2022-08-18T01:59:07.360Z,25.03
2022-08-18T02:01:48.107Z,25.03
2022-08-18T02:04:36.512Z,25.03
2022-08-18T02:07:08.109Z,25.02
2022-08-18T02:09:39.548Z,25.02
2022-08-18T02:12:08.682Z,25.02
2022-08-18T02:14:38.442Z,25.01
2022-08-18T02:17:08.796Z,25.02
2022-08-18T02:19:38.662Z,25.01
2022-08-18T02:22:08.490Z,25.01
2022-08-18T02:24:38.124Z,25.01
2022-08-18T02:27:06.485Z,25.01
2022-08-18T02:29:34.568Z,25.02
2022-08-18T02:32:02.512Z,25.00
2022-08-18T02:34:30.518Z,25.00
2022-08-18T02:37:00.210Z,25.00
2022-08-18T02:39:29.099Z,25.01
2022-08-18T02:41:58.569Z,25.02
2022-08-18T02:44:26.520Z,25.03
2022-08-18T02:46:55.137Z,25.01
2022-08-18T02:49:23.269Z,25.02
2022-08-18T02:51:52.116Z,25.02
2022-08-18T02:54:20.633Z,25.03
2022-08-18T02:56:48.506Z,25.02
2022-08-18T02:59:20.469Z,25.02
2022-08-18T03:01:51.359Z,25.03
2022-08-18T03:04:24.024Z,25.02
2022-08-18T03:06:56.074Z,25.04
2022-08-18T03:09:24.318Z,25.03
2022-08-18T03:11:53.588Z,25.03
2022-08-18T03:14:23.101Z,25.02
2022-08-18T03:16:54.145Z,25.02
2022-08-18T03:19:24.337Z,25.02
2022-08-18T03:21:52.917Z,25.00
2022-08-18T03:24:22.874Z,25.00
2022-08-18T03:26:52.498Z,25.00
2022-08-18T03:29:22.319Z,25.00
2022-08-18T03:31:51.284Z,24.99
2022-08-18T03:34:21.470Z,24.98
2022-08-18T03:36:50.954Z,24.99
2022-08-18T03:39:20.564Z,24.98
2022-08-18T03:41:59.876Z,24.98
2022-08-18T03:44:32.458Z,24.99
2022-08-18T03:47:01.563Z,24.98
2022-08-18T03:49:30.195Z,24.97
2022-08-18T03:52:00.734Z,24.97
2022-08-18T03:54:32.202Z,24.96
2022-08-18T03:57:01.253Z,24.96
2022-08-18T03:59:32.030Z,24.96
2022-08-18T04:02:00.372Z,24.97
2022-08-18T04:04:29.464Z,24.96
2022-08-18T04:07:00.054Z,24.94
2022-08-18T04:09:30.838Z,24.96
2022-08-18T04:12:03.597Z,24.96
2022-08-18T04:14:34.258Z,24.94
2022-08-18T04:17:02.280Z,24.93
2022-08-18T04:19:31.031Z,24.94
2022-08-18T04:21:59.403Z,24.94
2022-08-18T04:24:31.176Z,24.93
2022-08-18T04:27:02.504Z,24.93
2022-08-18T04:29:30.610Z,24.93
2022-08-18T04:32:02.797Z,24.93
2022-08-18T04:34:30.860Z,24.93
2022-08-18T04:36:58.810Z,24.92
2022-08-18T04:39:27.054Z,24.92
2022-08-18T04:41:55.190Z,24.91
2022-08-18T04:44:23.267Z,24.92
2022-08-18T04:46:53.154Z,24.92
2022-08-18T04:49:26.059Z,24.92
2022-08-18T04:52:30.727Z,24.93
2022-08-18T04:55:01.880Z,24.92
2022-08-18T04:57:34.977Z,24.92
2022-08-18T05:00:04.823Z,24.93
2022-08-18T05:02:33.634Z,24.92
2022-08-18T05:05:03.907Z,24.93
2022-08-18T05:07:32.099Z,24.93
2022-08-18T05:10:00.102Z,24.92
2022-08-18T05:12:28.969Z,24.92
2022-08-18T05:14:57.933Z,24.92
2022-08-18T05:17:31.049Z,24.93
2022-08-18T05:20:01.466Z,24.92
2022-08-18T05:22:32.060Z,24.92
2022-08-18T05:25:01.022Z,24.92
2022-08-18T05:27:33.983Z,24.92
2022-08-18T05:30:02.435Z,24.92
2022-08-18T05:32:47.877Z,24.93
2022-08-18T05:35:22.229Z,24.92
2022-08-18T05:38:13.882Z,24.91
2022-08-18T05:40:42.728Z,24.93
2022-08-18T05:43:12.160Z,24.92
2022-08-18T05:45:41.869Z,24.92
2022-08-18T05:48:09.807Z,24.92
2022-08-18T05:50:38.777Z,24.91
2022-08-18T05:53:14.642Z,24.92
2022-08-18T05:56:05.407Z,24.91
2022-08-18T05:58:37.882Z,24.91
2022-08-18T06:01:08.996Z,24.92
2022-08-18T06:03:45.162Z,24.91
2022-08-18T06:06:19.935Z,24.93
2022-08-18T06:08:55.104Z,24.92
2022-08-18T06:11:23.815Z,24.92
2022-08-18T06:13:54.315Z,24.93
2022-08-18T06:16:40.956Z,24.94
2022-08-18T06:19:29.539Z,24.94
2022-08-18T06:22:03.387Z,24.96
2022-08-18T06:24:39.149Z,24.97
2022-08-18T06:27:19.769Z,24.96
2022-08-18T06:29:59.593Z,24.96
2022-08-18T06:32:37.925Z,24.98
2022-08-18T06:35:18.155Z,24.99
2022-08-18T06:38:12.659Z,24.98
2022-08-18T06:40:41.943Z,24.99
2022-08-18T06:43:17.037Z,24.99
2022-08-18T06:45:52.160Z,24.99
2022-08-18T06:48:28.508Z,25.00
2022-08-18T06:51:00.399Z,25.00
2022-08-18T06:53:53.312Z,25.00
2022-08-18T06:56:26.963Z,25.01
2022-08-18T06:58:55.964Z,25.00
2022-08-18T07:01:25.983Z,25.01
2022-08-18T07:03:57.175Z,25.02
2022-08-18T07:06:30.283Z,25.03
2022-08-18T07:09:21.791Z,25.01
2022-08-18T07:12:04.785Z,25.01
2022-08-18T07:14:33.196Z,25.01
2022-08-18T07:17:09.389Z,25.02
2022-08-18T07:19:37.503Z,25.02
2022-08-18T07:22:09.941Z,25.01
2022-08-18T07:24:42.302Z,25.02
2022-08-18T07:27:15.403Z,25.03
2022-08-18T07:30:01.162Z,25.02
2022-08-18T07:32:34.471Z,25.01
2022-08-18T07:35:05.675Z,25.03
2022-08-18T07:37:39.586Z,25.02
2022-08-18T07:40:18.401Z,25.03
2022-08-18T07:43:01.653Z,25.04
2022-08-18T07:45:38.177Z,25.04
2022-08-18T07:48:34.709Z,25.03
2022-08-18T07:51:13.551Z,25.03
2022-08-18T07:53:54.417Z,25.03
2022-08-18T07:56:33.773Z,25.03
2022-08-18T07:59:11.302Z,25.03
2022-08-18T08:01:51.941Z,25.03
2022-08-18T08:04:32.028Z,25.04
2022-08-18T08:07:24.096Z,25.03
2022-08-18T08:10:02.526Z,25.03
2022-08-18T08:12:37.121Z,25.04
2022-08-18T08:15:17.719Z,25.04
2022-08-18T08:17:56.179Z,25.05
2022-08-18T08:20:32.696Z,25.04
2022-08-18T08:23:10.616Z,25.05
2022-08-18T08:25:55.300Z,25.05
2022-08-18T08:28:34.548Z,25.05
2022-08-18T08:31:35.526Z,25.05
2022-08-18T08:34:08.108Z,25.05
2022-08-18T08:36:40.248Z,25.04
2022-08-18T08:39:15.168Z,25.06
2022-08-18T08:41:49.219Z,25.06
2022-08-18T08:44:23.436Z,25.06
2022-08-18T08:46:58.767Z,25.05
2022-08-18T08:49:38.779Z,25.06
2022-08-18T08:52:18.962Z,25.05
2022-08-18T08:54:53.688Z,25.05
2022-08-18T08:57:27.002Z,25.06
2022-08-18T08:59:58.890Z,25.06
2022-08-18T09:02:47.970Z,25.06
2022-08-18T09:05:22.789Z,25.05
2022-08-18T09:08:14.533Z,25.06
2022-08-18T09:11:19.035Z,25.06
2022-08-18T09:14:15.821Z,25.07
2022-08-18T09:16:55.779Z,25.07
2022-08-18T09:19:44.778Z,25.07
2022-08-18T09:22:27.279Z,25.07
2022-08-18T09:24:56.887Z,25.07
2022-08-18T09:27:53.911Z,25.06
2022-08-18T09:30:51.387Z,25.07
2022-08-18T09:33:49.804Z,25.06
2022-08-18T09:36:40.183Z,25.07
2022-08-18T09:39:36.277Z,25.07
2022-08-18T09:42:11.338Z,25.08
2022-08-18T09:45:04.656Z,25.08
2022-08-18T09:48:01.307Z,25.07
2022-08-18T09:51:08.124Z,25.08
2022-08-18T09:54:12.125Z,25.07
2022-08-18T09:57:19.549Z,25.07
2022-08-18T10:00:24.335Z,25.07
2022-08-18T10:03:26.001Z,25.08
2022-08-18T10:06:18.993Z,25.08
2022-08-18T10:09:18.171Z,25.07
2022-08-18T10:18:34.039Z,25.06
2022-08-18T10:21:10.048Z,25.08
2022-08-18T10:24:34.870Z,25.08
2022-08-18T10:27:05.322Z,25.08
2022-08-18T10:29:52.018Z,25.07
2022-08-18T10:32:52.151Z,25.07
2022-08-18T10:35:57.824Z,25.06
2022-08-18T10:41:46.561Z,25.07
2022-08-18T10:44:28.838Z,25.08
2022-08-18T10:47:00.708Z,25.08
2022-08-18T10:49:32.111Z,25.08
2022-08-18T10:55:47.957Z,25.07
2022-08-18T10:58:36.760Z,25.08
2022-08-18T11:01:15.949Z,25.07
2022-08-18T11:07:07.930Z,25.07
2022-08-18T11:09:41.681Z,25.08
2022-08-18T11:12:13.328Z,25.07
2022-08-18T11:15:00.629Z,25.08
2022-08-18T11:18:00.541Z,25.07
2022-08-18T11:20:31.555Z,25.08
2022-08-18T11:23:02.987Z,25.07
2022-08-18T11:25:34.756Z,25.08
2022-08-18T11:28:03.674Z,25.07
2022-08-18T11:30:37.068Z,25.07
2022-08-18T11:33:06.516Z,25.07
2022-08-18T11:35:48.416Z,25.08
2022-08-18T11:38:20.899Z,25.08
2022-08-18T11:41:13.040Z,25.06
2022-08-18T11:46:38.869Z,25.08
2022-08-18T11:49:17.482Z,25.07
2022-08-18T11:52:02.361Z,25.08
2022-08-18T11:54:50.723Z,25.07
2022-08-18T11:57:58.731Z,25.08
2022-08-18T12:00:44.135Z,25.08
2022-08-18T12:03:23.923Z,25.07
2022-08-18T12:05:56.451Z,25.06
2022-08-18T12:08:57.077Z,25.07
2022-08-18T12:11:26.732Z,25.07
2022-08-18T12:14:31.599Z,25.07
2022-08-18T12:19:42.022Z,25.09
2022-08-18T12:22:17.424Z,25.07
2022-08-18T12:24:48.511Z,25.08
2022-08-18T12:27:21.457Z,25.08
2022-08-18T12:29:50.745Z,25.08
2022-08-18T12:32:52.669Z,25.09
2022-08-18T12:35:12.263Z,25.10
2022-08-18T12:38:11.251Z,25.11
2022-08-18T12:40:32.949Z,25.10
2022-08-18T12:43:01.154Z,25.09
2022-08-18T12:45:31.132Z,25.11
2022-08-18T12:48:04.162Z,25.10
2022-08-18T12:50:42.704Z,25.10
2022-08-18T12:53:30.048Z,25.10
2022-08-18T12:56:24.849Z,25.10
2022-08-18T12:58:53.270Z,25.12
2022-08-18T13:01:23.349Z,25.12
2022-08-18T13:04:11.637Z,25.11
2022-08-18T13:06:59.318Z,25.11
2022-08-18T13:09:34.658Z,25.10
2022-08-18T13:12:19.736Z,25.09
2022-08-18T13:14:48.638Z,25.07
2022-08-18T13:17:30.519Z,25.06
2022-08-18T13:20:04.479Z,25.04
2022-08-18T13:22:33.905Z,25.03
2022-08-18T13:25:05.191Z,25.00
2022-08-18T13:27:35.682Z,25.00
2022-08-18T13:30:30.449Z,24.98
2022-08-18T13:32:59.390Z,24.97
2022-08-18T13:35:29.959Z,24.96
2022-08-18T13:38:14.224Z,24.96
2022-08-18T13:40:47.063Z,24.94
2022-08-18T13:43:15.909Z,24.93
2022-08-18T13:45:52.716Z,24.93
2022-08-18T13:48:21.570Z,24.91
2022-08-18T13:50:53.861Z,24.91
2022-08-18T13:53:27.427Z,24.91
2022-08-18T13:55:58.016Z,24.91
2022-08-18T13:58:27.381Z,24.90
2022-08-18T14:01:16.273Z,24.87
2022-08-18T14:03:48.109Z,24.87
2022-08-18T14:06:22.523Z,24.86
2022-08-18T14:08:54.542Z,24.87
2022-08-18T14:11:32.959Z,24.87
2022-08-18T14:14:02.428Z,24.87
2022-08-18T14:16:30.820Z,24.87
2022-08-18T14:19:17.650Z,24.86
2022-08-18T14:22:05.413Z,24.86
2022-08-18T14:24:54.362Z,24.87
2022-08-18T14:27:28.334Z,24.88
2022-08-18T14:30:04.230Z,24.88
2022-08-18T14:32:32.383Z,24.88
2022-08-18T14:35:33.553Z,24.88
2022-08-18T14:37:54.029Z,24.89
2022-08-18T14:40:25.811Z,24.90
2022-08-18T14:42:55.667Z,24.90
2022-08-18T14:45:31.156Z,24.92
2022-08-18T14:48:04.557Z,24.92
2022-08-18T14:50:36.959Z,24.93
2022-08-18T14:53:05.580Z,24.92
2022-08-18T14:55:35.007Z,24.92
2022-08-18T14:58:04.130Z,24.93
2022-08-18T15:00:49.735Z,24.94
2022-08-18T15:03:28.372Z,24.94
2022-08-18T15:06:00.164Z,24.96
2022-08-18T15:08:28.512Z,24.97
2022-08-18T15:10:58.294Z,24.96
2022-08-18T15:13:27.690Z,24.97
2022-08-18T15:15:55.877Z,24.97
2022-08-18T15:18:31.419Z,24.96
2022-08-18T15:21:35.760Z,24.97
2022-08-18T15:24:29.451Z,24.99
2022-08-18T15:27:05.544Z,25.00
2022-08-18T15:29:34.741Z,25.00
2022-08-18T15:32:10.484Z,24.99
2022-08-18T15:34:47.403Z,24.99
2022-08-18T15:37:24.220Z,24.99
2022-08-18T15:40:01.177Z,24.98
2022-08-18T15:42:33.196Z,24.98
2022-08-18T15:45:13.948Z,24.99
2022-08-18T15:47:42.711Z,24.98
2022-08-18T15:50:25.198Z,24.98
2022-08-18T15:52:55.921Z,24.98
2022-08-18T15:55:25.130Z,24.99
2022-08-18T15:57:56.812Z,24.99
2022-08-18T16:00:29.872Z,24.99
2022-08-18T16:03:01.481Z,24.99
2022-08-18T16:05:33.677Z,25.00
2022-08-18T16:08:01.695Z,25.01
2022-08-18T16:10:32.718Z,25.03
2022-08-18T16:13:04.598Z,25.04
2022-08-18T16:15:37.538Z,25.05
2022-08-18T16:18:07.084Z,25.05
2022-08-18T16:20:35.109Z,25.06
2022-08-18T16:23:03.664Z,25.06
2022-08-18T16:25:31.613Z,25.07
2022-08-18T16:28:00.333Z,25.06
2022-08-18T16:30:30.266Z,25.07
2022-08-18T16:33:02.903Z,25.07
2022-08-18T16:35:31.215Z,25.07
2022-08-18T16:38:04.459Z,25.07
2022-08-18T16:40:32.517Z,25.08
2022-08-18T16:43:01.149Z,25.08
2022-08-18T16:45:32.000Z,25.07
2022-08-18T16:48:00.011Z,25.08
2022-08-18T16:50:27.998Z,25.08
2022-08-18T16:52:56.434Z,25.09
2022-08-18T16:55:24.476Z,25.09
2022-08-18T16:58:13.596Z,25.08
2022-08-18T17:01:02.252Z,25.08
2022-08-18T17:03:47.453Z,25.08
2022-08-18T17:06:18.829Z,25.10
2022-08-18T17:08:47.553Z,25.09
2022-08-18T17:11:18.655Z,25.10
2022-08-18T17:13:48.647Z,25.08
2022-08-18T17:16:20.685Z,25.09
2022-08-18T17:18:48.982Z,25.09
2022-08-18T17:21:19.842Z,25.10
2022-08-18T17:23:48.565Z,25.10
2022-08-18T17:26:22.923Z,25.09
2022-08-18T17:28:55.642Z,25.10
2022-08-18T17:31:25.983Z,25.10
2022-08-18T17:33:58.351Z,25.09
2022-08-18T17:36:33.603Z,25.09
2022-08-18T17:39:05.057Z,25.09
2022-08-18T17:41:55.952Z,25.09
2022-08-18T17:44:28.706Z,25.06
2022-08-18T17:47:03.039Z,25.02
2022-08-18T17:49:54.258Z,24.98
2022-08-18T17:52:53.485Z,24.97
2022-08-18T17:55:36.749Z,24.94
2022-08-18T17:58:10.776Z,24.93
2022-08-18T18:00:38.825Z,24.98
2022-08-18T18:03:12.801Z,25.05
2022-08-18T18:05:43.993Z,25.06
2022-08-18T18:08:12.205Z,25.09
2022-08-18T18:11:02.215Z,25.12
2022-08-18T18:13:32.923Z,25.15
2022-08-18T18:16:03.202Z,25.18
2022-08-18T18:18:41.750Z,25.21
2022-08-18T18:21:23.350Z,25.23
2022-08-18T18:24:16.048Z,25.24
2022-08-18T18:26:45.904Z,25.23
2022-08-18T18:29:29.247Z,25.25
2022-08-18T18:32:01.691Z,25.26
2022-08-18T18:34:39.155Z,25.27
2022-08-18T18:37:25.129Z,25.26
2022-08-18T18:39:57.610Z,25.26
2022-08-18T18:42:27.836Z,25.29
2022-08-18T18:44:59.572Z,25.26
2022-08-18T18:47:42.526Z,25.25
2022-08-18T18:50:18.375Z,25.24
2022-08-18T18:52:55.897Z,25.22
2022-08-18T18:55:26.867Z,25.21
2022-08-18T18:58:12.226Z,25.20
2022-08-18T19:00:53.658Z,25.20
2022-08-18T19:03:29.791Z,25.17
2022-08-18T19:06:14.329Z,25.16
2022-08-18T19:08:50.633Z,25.17
2022-08-18T19:11:26.183Z,25.18
2022-08-18T19:14:02.053Z,25.12
2022-08-18T19:16:33.784Z,25.08
2022-08-18T19:19:38.335Z,25.03
2022-08-18T19:22:06.593Z,25.01
2022-08-18T19:24:40.338Z,24.97
2022-08-18T19:27:16.988Z,24.96
2022-08-18T19:29:50.369Z,24.91
2022-08-18T19:32:21.950Z,24.88
2022-08-18T19:34:54.448Z,24.88
2022-08-18T19:37:32.383Z,24.91
2022-08-18T19:40:09.665Z,24.97
2022-08-18T19:42:44.139Z,25.00
2022-08-18T19:45:19.329Z,25.04
2022-08-18T19:47:52.571Z,25.06
2022-08-18T19:50:29.763Z,25.12
2022-08-18T19:53:16.272Z,25.15
2022-08-18T19:55:58.180Z,25.16
2022-08-18T19:59:15.027Z,25.17
2022-08-18T20:01:56.738Z,25.19
2022-08-18T20:04:43.507Z,25.20
2022-08-18T20:07:46.751Z,25.22
2022-08-18T20:10:57.871Z,25.26
2022-08-18T20:13:35.361Z,25.26
2022-08-18T20:16:43.886Z,25.30
2022-08-18T20:19:42.756Z,25.32
2022-08-18T20:22:16.253Z,25.32
2022-08-18T20:24:51.572Z,25.33
2022-08-18T20:27:35.412Z,25.34
2022-08-18T20:30:26.758Z,25.32
2022-08-18T20:33:11.534Z,25.33
2022-08-18T20:35:45.820Z,25.32
2022-08-18T20:38:27.018Z,25.34
2022-08-18T20:40:56.187Z,25.38
2022-08-18T20:43:32.622Z,25.36
2022-08-18T20:46:22.796Z,25.35
2022-08-18T20:49:06.953Z,25.37
2022-08-18T20:51:42.552Z,25.39
2022-08-18T20:54:29.911Z,25.42
2022-08-18T20:57:03.087Z,25.45
2022-08-18T20:59:34.385Z,25.42
2022-08-18T21:02:07.760Z,25.41
2022-08-18T21:04:47.426Z,25.45
2022-08-18T21:07:35.900Z,25.45
2022-08-18T21:10:13.506Z,25.47
2022-08-18T21:12:53.118Z,25.45
2022-08-18T21:15:25.000Z,25.47
2022-08-18T21:18:05.916Z,25.51
2022-08-18T21:20:35.217Z,25.49
2022-08-18T21:23:08.050Z,25.46
2022-08-18T21:25:36.798Z,25.45
2022-08-18T21:28:07.491Z,25.44
2022-08-18T21:30:35.469Z,25.37
2022-08-18T21:35:59.273Z,25.24
2022-08-18T21:38:32.585Z,25.22
2022-08-18T21:41:01.836Z,25.18
2022-08-18T21:43:49.257Z,25.15
2022-08-18T21:46:24.198Z,25.13
2022-08-18T21:48:54.742Z,25.12
2022-08-18T21:51:26.411Z,25.10
2022-08-18T21:53:55.636Z,25.09
2022-08-18T21:56:28.109Z,25.08
2022-08-18T21:59:09.649Z,25.06
2022-08-18T22:01:39.572Z,25.07
2022-08-18T22:04:25.639Z,25.06
2022-08-18T22:06:57.320Z,25.04
2022-08-18T22:09:45.603Z,25.04
2022-08-18T22:12:37.843Z,25.04
2022-08-18T22:15:10.773Z,25.03
2022-08-18T22:17:50.698Z,25.01
2022-08-18T22:20:41.996Z,25.03
2022-08-18T22:23:45.184Z,25.01
2022-08-18T22:26:21.464Z,25.02
2022-08-18T22:29:02.993Z,25.01
2022-08-18T22:31:32.967Z,25.01
2022-08-18T22:34:04.626Z,25.00
2022-08-18T22:36:37.101Z,25.00
2022-08-18T22:39:08.482Z,24.99
2022-08-18T22:41:37.971Z,24.99
2022-08-18T22:44:06.403Z,24.99
2022-08-18T22:46:35.315Z,24.98
2022-08-18T22:49:04.329Z,24.98
2022-08-18T22:51:33.367Z,24.98
2022-08-18T22:54:01.360Z,24.97
2022-08-18T22:56:34.723Z,24.96
2022-08-18T22:59:15.856Z,24.94
2022-08-18T23:01:48.153Z,24.96
2022-08-18T23:04:17.289Z,24.96
2022-08-18T23:06:51.752Z,24.94
2022-08-18T23:09:25.312Z,24.94
2022-08-18T23:11:58.458Z,24.93
2022-08-18T23:14:27.063Z,24.94
2022-08-18T23:16:54.982Z,24.93
2022-08-18T23:19:23.141Z,24.93
2022-08-18T23:21:51.885Z,24.96
2022-08-18T23:24:21.433Z,24.96
2022-08-18T23:26:50.365Z,24.96
2022-08-18T23:29:20.829Z,24.96
2022-08-18T23:31:50.775Z,24.97
2022-08-18T23:34:23.007Z,24.97
2022-08-18T23:36:56.243Z,24.96
2022-08-18T23:39:24.493Z,24.97
2022-08-18T23:41:52.963Z,24.94
2022-08-18T23:44:23.883Z,24.94
2022-08-18T23:46:55.553Z,24.93
2022-08-18T23:49:23.580Z,24.93
2022-08-18T23:51:55.705Z,24.91
2022-08-18T23:54:28.373Z,24.91
2022-08-18T23:56:56.379Z,24.91
2022-08-18T23:59:27.160Z,24.90
